Time;durP1;ratioP1;P1;durP2;ratioP2;P2;SDS_P1;SDS_P2;PMS_P1;PMS_P2;Temp;Humidity;BMP_temperature;BMP_pressure;BME280_temperature;BME280_humidity;BME280_pressure;Samples;Min_cycle;Max_cycle;Signal;HPM_P1;HPM_P2
2024/01/24 00:00:27;;;;;;;3.72;0.70;;;;;;;14.44;98.85;100730.66;8271457;28;20509;-60
2024/01/24 00:04:28;;;;;;;5.55;1.08;;;;;;;14.37;100.00;100734.19;8271564;28;20038;-58
2024/01/24 00:12:37;;;;;;;5.00;1.00;;;;;;;13.87;100.00;100723.03;8333635;27;20385;-58
2024/01/24 00:16:38;;;;;;;3.28;1.02;;;;;;;13.95;100.00;100723.13;8331270;28;20038;-57
2024/01/24 00:20:39;;;;;;;4.38;0.90;;;;;;;13.96;100.00;100722.09;8335919;28;20042;-56
2024/01/24 00:24:40;;;;;;;4.55;1.35;;;;;;;13.98;100.00;100717.38;8334175;28;20540;-58
2024/01/24 00:28:40;;;;;;;5.97;1.65;;;;;;;14.17;100.00;100749.81;8335789;28;20514;-57
2024/01/24 00:32:41;;;;;;;4.93;1.25;;;;;;;14.24;99.92;100733.75;8333878;28;20045;-58
2024/01/24 00:36:42;;;;;;;5.40;1.27;;;;;;;14.35;99.08;100720.75;8333248;28;20502;-58
2024/01/24 00:40:43;;;;;;;4.15;1.25;;;;;;;14.35;98.71;100696.25;8335025;28;20045;-58
2024/01/24 00:44:45;;;;;;;4.22;1.05;;;;;;;14.42;98.61;100683.72;8338040;28;20037;-59
2024/01/24 00:48:45;;;;;;;2.38;1.10;;;;;;;14.40;99.04;100664.00;8329982;28;20090;-57
2024/01/24 00:52:51;;;;;;;3.10;1.27;;;;;;;14.38;99.27;100652.44;8333324;28;20041;-59
2024/01/24 06:19:27;;;;;;;19.05;2.10;;;;;;;13.13;88.43;100676.31;8352053;27;20931;-56
2024/01/24 06:25:09;;;;;;;16.20;2.10;;;;;;;13.10;86.04;100740.91;8318315;28;20393;-57
2024/01/24 06:29:09;;;;;;;17.23;3.05;;;;;;;13.14;85.55;100721.44;8318372;28;20049;-58
2024/01/24 06:33:10;;;;;;;15.93;2.45;;;;;;;12.98;86.96;100717.66;8316285;28;20112;-57
2024/01/24 06:37:10;;;;;;;23.83;3.65;;;;;;;12.93;87.15;100728.13;8318615;28;20437;-58
2024/01/24 06:41:12;;;;;;;22.85;3.60;;;;;;;13.10;85.00;100758.06;8326380;28;20057;-56
2024/01/24 06:45:12;;;;;;;17.67;3.67;;;;;;;13.01;85.61;100764.38;8292059;28;20509;-58
2024/01/24 06:49:13;;;;;;;28.05;3.90;;;;;;;13.04;85.28;100753.22;8296940;28;20471;-58
2024/01/24 06:53:14;;;;;;;21.40;3.70;;;;;;;12.99;85.83;100754.66;8300578;28;20046;-57
2024/01/24 06:57:15;;;;;;;25.88;3.50;;;;;;;12.87;86.96;100766.72;8300541;28;20038;-56
2024/01/24 07:01:15;;;;;;;26.60;4.18;;;;;;;12.86;87.18;100775.84;8302614;28;20046;-54
2024/01/24 07:05:15;;;;;;;19.17;3.20;;;;;;;12.86;86.70;100798.41;8302734;28;20100;-57
2024/01/24 07:09:17;;;;;;;21.33;3.95;;;;;;;12.71;86.98;100780.03;8300881;28;20408;-58
2024/01/24 07:13:19;;;;;;;30.15;3.08;;;;;;;12.80;86.48;100792.72;8301652;28;20128;-57
2024/01/24 07:17:20;;;;;;;27.02;3.58;;;;;;;12.81;85.21;100799.88;8298374;28;20595;-56
2024/01/24 07:21:20;;;;;;;24.23;3.70;;;;;;;12.88;84.73;100811.84;8297410;28;20492;-57
2024/01/24 07:25:21;;;;;;;25.73;4.65;;;;;;;12.85;84.49;100823.84;8298103;28;20065;-56
2024/01/24 07:29:21;;;;;;;24.80;3.60;;;;;;;12.98;83.42;100826.22;8297810;28;20042;-56
2024/01/24 07:33:23;;;;;;;30.00;3.80;;;;;;;12.97;83.60;100843.50;8293899;28;20572;-57
2024/01/24 07:37:23;;;;;;;23.83;4.22;;;;;;;12.96;83.96;100850.78;8276631;28;20042;-56
2024/01/24 07:41:24;;;;;;;24.95;3.85;;;;;;;13.05;82.90;100824.66;8276763;28;20046;-57
2024/01/24 07:45:24;;;;;;;27.40;5.10;;;;;;;13.07;82.58;100836.22;8273687;28;20038;-57
2024/01/24 07:49:25;;;;;;;29.88;4.93;;;;;;;12.93;83.05;100890.97;8276085;28;20057;-56
2024/01/24 07:53:25;;;;;;;29.70;4.80;;;;;;;13.09;80.96;100874.94;8279376;28;20049;-58
2024/01/24 07:57:26;;;;;;;28.05;4.15;;;;;;;13.03;81.34;100902.66;8274457;28;20046;-56
2024/01/24 08:01:26;;;;;;;34.05;5.03;;;;;;;13.06;80.61;100913.22;8275761;28;20072;-55
2024/01/24 08:05:29;;;;;;;24.27;3.75;;;;;;;13.06;81.21;100914.09;8273796;28;20042;-57
2024/01/24 08:09:30;;;;;;;29.60;4.80;;;;;;;13.07;80.73;100921.22;8273759;28;20058;-56
2024/01/24 08:13:32;;;;;;;31.38;4.63;;;;;;;13.03;80.98;100924.38;8275421;28;20038;-55
2024/01/24 08:17:36;;;;;;;31.08;4.97;;;;;;;12.96;81.59;100923.22;8272608;28;20125;-56
2024/01/24 08:21:37;;;;;;;31.63;4.85;;;;;;;12.95;81.42;100932.34;8275567;28;20092;-57
2024/01/24 08:25:37;;;;;;;37.35;6.18;;;;;;;12.90;82.38;100940.09;8275233;28;20479;-54
2024/01/24 08:29:37;;;;;;;29.77;4.25;;;;;;;12.90;81.55;100937.38;8274285;28;20487;-57
2024/01/24 08:33:38;;;;;;;32.35;4.68;;;;;;;12.85;81.71;100945.09;8274234;28;20052;-59
2024/01/24 08:37:38;;;;;;;28.00;4.43;;;;;;;12.87;81.64;100978.38;8272649;28;20062;-58
2024/01/24 08:41:39;;;;;;;34.00;6.03;;;;;;;12.81;82.22;100992.50;8274829;28;20038;-57
2024/01/24 08:45:39;;;;;;;41.60;6.00;;;;;;;12.87;81.91;100983.81;8270790;28;20053;-56
2024/01/24 08:49:40;;;;;;;32.65;5.75;;;;;;;12.89;80.66;100992.63;8274528;28;20034;-57
2024/01/24 08:53:41;;;;;;;35.80;4.22;;;;;;;12.95;80.28;100992.06;8274177;28;20041;-57
2024/01/24 08:57:43;;;;;;;36.75;5.20;;;;;;;12.91;79.89;101001.50;8273212;28;20048;-56
2024/01/24 09:01:45;;;;;;;47.83;6.50;;;;;;;12.93;79.96;101022.06;8273651;28;20034;-55
2024/01/24 09:05:46;;;;;;;33.95;6.05;;;;;;;12.98;79.78;101032.50;8272545;28;20053;-57
2024/01/24 09:09:48;;;;;;;36.70;6.57;;;;;;;12.95;79.77;101032.78;8273797;28;20511;-55
2024/01/24 09:13:50;;;;;;;42.30;5.45;;;;;;;13.03;79.59;101028.41;8272635;28;20057;-55
2024/01/24 09:17:51;;;;;;;36.75;5.78;;;;;;;13.19;78.39;101055.81;8271011;28;20125;-55
2024/01/24 09:21:51;;;;;;;56.67;7.30;;;;;;;13.21;78.67;101047.53;8272656;28;20034;-55
2024/01/24 09:25:52;;;;;;;36.40;5.45;;;;;;;13.07;78.12;101031.66;8272398;28;20047;-56
2024/01/24 09:29:52;;;;;;;34.80;5.40;;;;;;;13.02;77.66;101042.13;8272389;28;20035;-55
2024/01/24 09:33:53;;;;;;;31.73;5.15;;;;;;;13.10;75.34;101056.66;8272992;28;20556;-55
2024/01/24 09:37:53;;;;;;;36.60;5.55;;;;;;;13.15;74.78;101081.50;8272712;28;20042;-55
2024/01/24 09:41:54;;;;;;;29.23;5.47;;;;;;;13.32;74.91;101088.09;8273241;28;20103;-56
2024/01/24 09:45:57;;;;;;;38.78;6.78;;;;;;;13.33;74.71;101073.53;8270006;28;20518;-55
2024/01/24 09:50:04;;;;;;;38.10;5.97;;;;;;;13.33;75.55;101084.38;8272022;28;20045;-56
2024/01/24 09:54:06;;;;;;;46.28;8.63;;;;;;;13.23;76.60;101116.09;8272046;28;20045;-56
2024/01/24 09:58:06;;;;;;;42.13;6.32;;;;;;;13.29;76.80;101145.41;8271641;28;20038;-56
2024/01/24 10:02:07;;;;;;;34.88;5.57;;;;;;;13.34;75.62;101145.84;8272900;28;20042;-55
2024/01/24 10:06:09;;;;;;;43.13;5.93;;;;;;;13.42;74.86;101144.13;8272391;28;20511;-55
2024/01/24 10:10:12;;;;;;;44.42;5.28;;;;;;;13.39;74.83;101154.44;8271674;28;20037;-55
2024/01/24 10:14:13;;;;;;;32.85;6.93;;;;;;;13.36;75.57;101160.97;8271612;28;20554;-57
2024/01/24 10:18:13;;;;;;;43.65;7.03;;;;;;;13.49;75.73;101148.00;8271283;28;20045;-56
2024/01/24 10:22:14;;;;;;;39.58;6.35;;;;;;;13.42;75.57;101151.44;8271971;28;20042;-57
2024/01/24 10:26:15;;;;;;;34.00;5.30;;;;;;;13.29;75.88;101153.53;8268289;28;20043;-56
2024/01/24 10:30:16;;;;;;;41.13;6.25;;;;;;;13.26;77.07;101164.69;8271725;28;20042;-59
2024/01/24 10:34:16;;;;;;;35.20;4.97;;;;;;;13.24;77.84;101177.56;8271219;28;20095;-57
2024/01/24 10:38:21;;;;;;;49.78;6.28;;;;;;;13.14;77.35;101168.53;8271231;28;20037;-56
2024/01/24 10:42:28;;;;;;;36.63;5.45;;;;;;;13.15;78.03;101164.84;8271250;28;20034;-57
2024/01/24 10:46:29;;;;;;;45.85;5.47;;;;;;;13.17;78.18;101173.69;8274428;28;20046;-58
2024/01/24 10:50:30;;;;;;;37.53;5.97;;;;;;;13.20;77.02;101177.00;8270796;28;20052;-58
2024/01/24 10:54:33;;;;;;;39.42;4.80;;;;;;;13.18;76.88;101187.13;8272368;28;20432;-56
2024/01/24 11:00:59;;;;;;;47.45;6.93;;;;;;;12.76;77.97;101195.56;8345728;27;20414;-54
2024/01/24 11:05:04;;;;;;;46.15;7.00;;;;;;;12.82;78.06;101203.16;8349784;28;20558;-54
2024/01/24 11:09:16;;;;;;;45.22;6.15;;;;;;;12.84;78.02;101228.31;8348543;28;20044;-55
2024/01/24 11:20:25;;;;;;;39.85;6.57;;;;;;;13.03;77.94;101233.84;8301786;28;20545;-55
2024/01/24 11:29:04;;;;;;;44.55;6.47;;;;;;;13.17;77.47;101247.00;8408255;27;20389;-55
2024/01/24 11:33:13;;;;;;;38.00;6.28;;;;;;;13.05;77.08;101259.00;8395449;27;20512;-55
2024/01/24 11:37:15;;;;;;;44.63;7.55;;;;;;;12.93;78.29;101265.50;8398228;27;20110;-54
2024/01/24 11:41:31;;;;;;;41.05;6.13;;;;;;;12.89;77.70;101258.59;8402904;27;20059;-56
2024/01/24 11:45:34;;;;;;;40.28;6.32;;;;;;;12.90;78.82;101269.31;8398864;27;20036;-54
2024/01/24 11:49:34;;;;;;;33.13;5.68;;;;;;;12.91;77.16;101297.31;8401258;27;20101;-55
2024/01/24 11:53:35;;;;;;;40.67;6.50;;;;;;;12.93;78.57;101287.19;8380545;28;20067;-54
2024/01/24 11:57:35;;;;;;;44.75;6.32;;;;;;;12.95;78.29;101296.91;8392788;27;20044;-55
2024/01/24 12:01:36;;;;;;;48.85;6.60;;;;;;;13.09;77.86;101282.16;8398573;27;20044;-54
2024/01/24 12:05:36;;;;;;;41.63;6.18;;;;;;;13.21;76.88;101283.75;8397715;27;20135;-54
2024/01/24 15:18:12;;;;;;;36.78;6.68;;;;;;;12.05;80.80;101526.34;8398065;27;20460;-55
2024/01/24 15:22:15;;;;;;;44.85;7.32;;;;;;;12.05;81.37;101512.78;8394498;28;20056;-57
2024/01/24 15:26:16;;;;;;;46.45;5.97;;;;;;;12.12;80.45;101532.97;8399903;28;20544;-56
2024/01/24 15:30:17;;;;;;;39.58;5.40;;;;;;;12.07;80.86;101540.63;8393803;28;20564;-57
2024/01/24 15:34:19;;;;;;;43.10;6.30;;;;;;;12.03;81.88;101541.84;8409174;28;20562;-57
2024/01/24 15:38:20;;;;;;;41.65;6.97;;;;;;;12.04;81.57;101554.44;8402775;28;20123;-57
2024/01/24 15:42:21;;;;;;;48.47;7.25;;;;;;;11.93;82.27;101543.59;8397222;28;20036;-57
2024/01/24 15:46:24;;;;;;;40.55;6.65;;;;;;;11.83;82.88;101533.50;8396839;28;20044;-58
2024/01/24 15:50:25;;;;;;;45.95;7.10;;;;;;;11.69;83.94;101552.69;8395571;28;20042;-58
2024/01/24 15:54:25;;;;;;;54.00;6.60;;;;;;;11.71;83.03;101556.16;8395045;28;20045;-58
2024/01/24 15:58:26;;;;;;;38.03;6.45;;;;;;;11.84;80.38;101562.31;8396053;28;20048;-56
2024/01/24 16:02:29;;;;;;;40.08;6.40;;;;;;;11.88;79.26;101577.34;8400023;28;20045;-59
2024/01/24 16:06:29;;;;;;;36.67;5.18;;;;;;;11.87;79.30;101567.47;8386199;28;20110;-56
2024/01/24 16:10:29;;;;;;;40.10;6.57;;;;;;;11.79;80.90;101586.22;8367719;28;20044;-58
2024/01/24 16:14:30;;;;;;;42.25;6.05;;;;;;;11.73;83.30;101586.72;8372469;28;20664;-56
2024/01/24 16:18:31;;;;;;;43.28;6.78;;;;;;;11.67;85.38;101597.16;8362922;28;20041;-58
2024/01/24 16:22:31;;;;;;;59.13;8.10;;;;;;;11.59;86.67;101594.19;8365988;28;20448;-58
2024/01/24 16:26:31;;;;;;;40.85;6.53;;;;;;;11.57;87.71;101597.00;8354723;28;20037;-58
2024/01/24 16:30:35;;;;;;;35.47;6.53;;;;;;;11.56;87.08;101589.84;8360035;28;20037;-58
2024/01/24 16:34:35;;;;;;;37.33;6.90;;;;;;;11.56;87.29;101589.00;8363922;28;20166;-58
2024/01/24 16:38:35;;;;;;;38.80;7.63;;;;;;;11.46;87.40;101594.25;8357252;28;20053;-59
2024/01/24 16:42:36;;;;;;;37.90;6.78;;;;;;;11.49;86.93;101593.16;8344798;28;20044;-57
2024/01/24 16:46:37;;;;;;;52.20;7.88;;;;;;;11.48;87.17;101630.22;8344156;28;20044;-57
2024/01/24 16:50:38;;;;;;;51.22;7.15;;;;;;;11.48;86.95;101643.75;8344530;28;20710;-57
2024/01/24 16:54:39;;;;;;;54.95;7.18;;;;;;;11.47;87.31;101644.72;8333328;28;20167;-58
2024/01/24 16:58:41;;;;;;;54.38;7.80;;;;;;;11.49;87.09;101642.78;8333400;28;20037;-55
2024/01/24 17:02:41;;;;;;;54.22;7.47;;;;;;;11.54;86.76;101645.13;8333942;28;20452;-58
2024/01/24 17:06:42;;;;;;;51.42;7.60;;;;;;;11.47;87.61;101654.72;8338465;28;20044;-56
2024/01/24 17:10:43;;;;;;;44.22;7.05;;;;;;;11.40;87.92;101659.72;8339409;28;20049;-57
2024/01/24 17:14:45;;;;;;;49.47;7.35;;;;;;;11.41;87.73;101656.03;8351136;28;20033;-55
2024/01/24 17:18:45;;;;;;;44.97;6.22;;;;;;;11.37;87.85;101643.72;8333482;28;20478;-58
2024/01/24 17:22:47;;;;;;;55.58;7.60;;;;;;;11.34;87.84;101664.75;8336435;28;20485;-57
2024/01/24 17:26:48;;;;;;;43.25;6.63;;;;;;;11.28;88.35;101666.06;8332177;28;20122;-57
2024/01/24 17:30:50;;;;;;;48.47;8.98;;;;;;;11.23;88.46;101668.25;8344360;28;20132;-58
2024/01/24 17:34:51;;;;;;;56.05;6.72;;;;;;;11.21;88.70;101664.81;8343106;28;20041;-58
2024/01/24 17:38:51;;;;;;;58.35;7.05;;;;;;;11.22;88.55;101658.41;8342266;28;20042;-57
2024/01/24 17:42:51;;;;;;;44.83;7.70;;;;;;;11.15;89.08;101665.28;8334926;28;20060;-55
2024/01/24 17:46:52;;;;;;;48.25;7.32;;;;;;;11.15;88.89;101672.53;8350068;28;20082;-56
2024/01/24 17:50:53;;;;;;;54.55;8.10;;;;;;;11.13;89.33;101669.09;8372156;28;20252;-58
2024/01/24 17:54:56;;;;;;;54.40;7.40;;;;;;;11.08;89.57;101684.81;8325495;28;20042;-55
2024/01/24 17:58:57;;;;;;;53.90;7.23;;;;;;;11.06;90.20;101684.94;8337515;28;20403;-57
2024/01/24 18:02:57;;;;;;;52.33;7.05;;;;;;;11.08;90.02;101687.53;8338361;28;20116;-56
2024/01/24 18:06:58;;;;;;;45.30;7.93;;;;;;;11.15;89.95;101681.53;8332062;28;20033;-55
2024/01/24 18:10:58;;;;;;;45.30;7.30;;;;;;;11.09;90.61;101703.66;8342362;28;20049;-55
2024/01/24 18:14:59;;;;;;;56.92;8.25;;;;;;;11.10;90.94;101705.38;8339283;28;20056;-54
2024/01/24 18:18:59;;;;;;;56.42;8.00;;;;;;;11.05;91.00;101706.69;8332548;28;20041;-56
2024/01/24 18:23:00;;;;;;;47.78;7.47;;;;;;;11.07;90.71;101716.41;8329969;28;20045;-57
2024/01/24 18:27:01;;;;;;;46.88;7.40;;;;;;;11.06;90.66;101712.00;8336895;28;20124;-56
2024/01/24 18:31:01;;;;;;;46.42;6.35;;;;;;;10.99;90.33;101708.03;8339727;28;20354;-55
2024/01/24 18:35:02;;;;;;;46.08;7.57;;;;;;;10.96;90.76;101702.84;8343425;28;20048;-55
2024/01/24 18:39:03;;;;;;;55.58;8.40;;;;;;;10.95;90.64;101711.91;8367230;28;20285;-56
2024/01/24 18:43:04;;;;;;;52.35;7.10;;;;;;;10.95;90.56;101692.97;8354963;28;20044;-55
2024/01/24 18:47:05;;;;;;;57.15;6.70;;;;;;;10.97;90.26;101682.91;8361669;28;20447;-55
2024/01/24 18:51:06;;;;;;;52.60;6.93;;;;;;;10.93;90.88;101696.78;8371513;28;20049;-55
2024/01/24 18:55:10;;;;;;;53.35;7.55;;;;;;;10.88;91.09;101689.00;8368298;28;20090;-57
2024/01/24 18:59:10;;;;;;;52.80;7.63;;;;;;;10.80;91.69;101683.28;8354695;28;20059;-57
2024/01/24 19:03:11;;;;;;;43.63;7.63;;;;;;;10.75;92.17;101685.50;8346128;28;20048;-57
2024/01/24 19:07:12;;;;;;;45.03;7.07;;;;;;;10.65;92.67;101676.34;8337839;28;20037;-57
2024/01/24 19:11:13;;;;;;;56.17;8.25;;;;;;;10.59;93.10;101675.91;8347762;28;20146;-55
2024/01/24 19:15:13;;;;;;;43.58;7.05;;;;;;;10.56;93.23;101682.41;8344495;28;20059;-57
2024/01/24 19:19:14;;;;;;;42.20;7.63;;;;;;;10.55;93.26;101687.94;8343198;28;20202;-57
2024/01/24 19:23:15;;;;;;;48.58;6.97;;;;;;;10.43;94.22;101692.38;8344179;28;20124;-56
2024/01/24 19:27:15;;;;;;;41.53;7.55;;;;;;;10.33;94.53;101696.72;8339314;28;20051;-56
2024/01/24 19:31:16;;;;;;;56.92;7.50;;;;;;;10.37;94.79;101691.97;8345952;28;20051;-57
2024/01/24 19:35:17;;;;;;;56.08;7.55;;;;;;;10.43;94.82;101692.38;8368273;28;20071;-56
2024/01/24 19:39:18;;;;;;;48.05;7.53;;;;;;;10.42;95.09;101698.75;8338955;28;20056;-56
2024/01/24 19:43:18;;;;;;;51.20;7.70;;;;;;;10.31;95.29;101681.59;8340889;28;20037;-55
2024/01/24 19:47:20;;;;;;;45.50;8.18;;;;;;;10.37;95.13;101690.13;8342012;28;20040;-56
2024/01/24 19:51:21;;;;;;;47.05;6.85;;;;;;;10.34;96.58;101675.97;8345817;28;20033;-56
2024/01/24 19:55:22;;;;;;;50.92;7.47;;;;;;;10.36;95.30;101674.88;8339168;28;20045;-56
2024/01/24 19:59:23;;;;;;;58.85;7.47;;;;;;;10.36;95.88;101666.78;8343072;28;20142;-57
2024/01/24 20:03:23;;;;;;;48.40;7.25;;;;;;;10.31;96.13;101676.19;8337002;28;20045;-56
2024/01/24 20:07:24;;;;;;;43.15;7.68;;;;;;;10.40;94.96;101687.19;8348637;28;20041;-56
2024/01/24 20:11:24;;;;;;;48.60;7.63;;;;;;;10.46;94.07;101702.97;8351189;28;20395;-55
2024/01/24 20:15:25;;;;;;;61.63;7.53;;;;;;;10.49;94.06;101689.22;8337525;28;20038;-56
2024/01/24 20:19:26;;;;;;;52.95;7.25;;;;;;;10.50;93.95;101688.28;8336199;28;20048;-55
2024/01/24 20:23:27;;;;;;;43.55;6.72;;;;;;;10.43;94.35;101680.72;8336873;28;20045;-55
2024/01/24 20:27:27;;;;;;;46.65;7.03;;;;;;;10.44;94.42;101677.03;8349266;28;20045;-56
2024/01/24 20:31:28;;;;;;;50.58;7.72;;;;;;;10.36;94.37;101679.41;8345774;28;20126;-55
2024/01/24 20:35:28;;;;;;;46.97;7.72;;;;;;;10.33;95.13;101695.84;8362115;28;20453;-55
2024/01/24 20:39:29;;;;;;;44.28;6.78;;;;;;;10.41;94.70;101699.75;8372091;28;20048;-56
2024/01/24 20:43:29;;;;;;;48.22;6.85;;;;;;;10.43;94.42;101716.72;8380557;28;20488;-56
2024/01/24 20:47:30;;;;;;;51.38;6.95;;;;;;;10.32;95.12;101711.22;8368950;28;20076;-56
2024/01/24 20:51:30;;;;;;;34.70;6.57;;;;;;;10.31;95.20;101714.88;8377128;28;20041;-56
2024/01/24 20:55:30;;;;;;;52.08;6.75;;;;;;;10.24;95.54;101702.78;8376159;28;20554;-56
2024/01/24 20:59:31;;;;;;;53.92;8.18;;;;;;;10.26;95.27;101708.97;8356267;28;20759;-55
2024/01/24 21:03:31;;;;;;;45.45;6.88;;;;;;;10.21;95.42;101708.41;8354813;28;20076;-55
2024/01/24 21:07:32;;;;;;;44.00;6.72;;;;;;;10.17;95.69;101712.31;8348502;28;20064;-56
2024/01/24 21:11:32;;;;;;;58.00;7.10;;;;;;;10.21;95.39;101705.72;8336273;28;20118;-56
2024/01/24 21:15:33;;;;;;;44.63;7.88;;;;;;;10.20;95.69;101705.81;8336827;28;20464;-57
2024/01/24 21:19:33;;;;;;;45.60;7.22;;;;;;;10.25;95.54;101704.53;8340385;28;20048;-56
2024/01/24 21:23:34;;;;;;;53.20;6.82;;;;;;;10.15;96.44;101703.44;8339504;28;20037;-57
2024/01/24 21:27:34;;;;;;;60.53;8.18;;;;;;;10.16;96.77;101699.78;8343702;28;20083;-55
2024/01/24 21:31:35;;;;;;;47.15;6.18;;;;;;;10.21;96.42;101713.81;8345589;28;20100;-56
2024/01/24 21:35:35;;;;;;;63.15;8.27;;;;;;;10.18;97.18;101713.19;8358929;28;20102;-57
2024/01/24 21:39:36;;;;;;;58.47;8.23;;;;;;;10.16;97.47;101721.41;8335781;28;20053;-56
2024/01/24 21:43:36;;;;;;;48.38;7.18;;;;;;;10.16;97.88;101715.13;8336057;28;20810;-56
2024/01/24 21:47:37;;;;;;;48.40;7.65;;;;;;;10.11;98.48;101707.34;8336132;28;20095;-56
2024/01/24 21:51:37;;;;;;;62.88;8.05;;;;;;;10.15;98.89;101716.94;8332598;28;20040;-56
2024/01/24 21:55:38;;;;;;;65.13;9.88;;;;;;;10.17;99.18;101725.81;8384802;28;20127;-57
2024/01/24 21:59:38;;;;;;;60.10;7.88;;;;;;;10.10;99.99;101732.66;8403147;28;20059;-57
2024/01/24 22:03:39;;;;;;;63.50;8.80;;;;;;;10.06;100.00;101736.47;8384918;28;20037;-56
2024/01/24 22:07:40;;;;;;;53.28;7.68;;;;;;;10.07;100.00;101732.00;8363793;28;20086;-57
2024/01/24 22:11:41;;;;;;;54.10;7.03;;;;;;;10.06;100.00;101731.06;8351523;28;20577;-57
2024/01/24 22:15:41;;;;;;;51.90;8.23;;;;;;;10.08;100.00;101739.09;8352987;28;20548;-58
2024/01/24 22:19:42;;;;;;;68.75;9.52;;;;;;;10.05;100.00;101740.16;8352939;28;20437;-58
2024/01/24 22:23:42;;;;;;;61.72;8.63;;;;;;;10.08;100.00;101755.31;8352159;28;20044;-57
2024/01/24 22:27:43;;;;;;;55.65;8.13;;;;;;;10.16;100.00;101756.53;8349976;28;20040;-56
2024/01/24 22:31:43;;;;;;;70.18;9.77;;;;;;;10.24;100.00;101746.03;8349292;28;20040;-57
2024/01/24 22:35:44;;;;;;;57.42;8.52;;;;;;;10.28;100.00;101744.84;8348924;28;20660;-57
2024/01/24 22:39:44;;;;;;;48.15;6.80;;;;;;;10.28;100.00;101742.13;8350834;28;20044;-57
2024/01/24 22:43:44;;;;;;;69.28;9.07;;;;;;;10.34;100.00;101752.50;8342768;28;20068;-56
2024/01/24 22:47:45;;;;;;;56.10;8.23;;;;;;;10.38;100.00;101743.22;8347336;28;20045;-57
2024/01/24 22:51:46;;;;;;;66.15;8.45;;;;;;;10.42;100.00;101750.13;8349627;28;20658;-57
2024/01/24 22:55:46;;;;;;;65.10;10.20;;;;;;;10.40;100.00;101749.38;8335687;28;20491;-58
2024/01/24 22:59:48;;;;;;;71.18;9.15;;;;;;;10.34;100.00;101752.50;8339048;28;20488;-57
2024/01/24 23:03:48;;;;;;;60.70;8.18;;;;;;;10.28;100.00;101762.91;8339090;28;20040;-57
2024/01/24 23:07:49;;;;;;;72.65;8.43;;;;;;;10.28;100.00;101769.16;8337494;28;20045;-56
2024/01/24 23:11:49;;;;;;;52.35;8.38;;;;;;;10.37;100.00;101779.31;8356408;28;20074;-56
2024/01/24 23:15:51;;;;;;;68.38;10.38;;;;;;;10.37;100.00;101779.31;8333873;28;20179;-57
2024/01/24 23:19:51;;;;;;;61.05;8.43;;;;;;;10.44;100.00;101779.75;8334826;28;20411;-57
2024/01/24 23:23:52;;;;;;;62.92;8.43;;;;;;;10.38;100.00;101786.47;8332137;28;20062;-56
2024/01/24 23:27:52;;;;;;;47.40;7.25;;;;;;;10.40;100.00;101780.97;8337931;28;20041;-56
2024/01/24 23:31:52;;;;;;;52.53;7.55;;;;;;;10.39;100.00;101777.38;8338690;28;20585;-56
2024/01/24 23:35:53;;;;;;;60.05;9.25;;;;;;;10.32;100.00;101770.69;8333871;28;20491;-56
2024/01/24 23:39:53;;;;;;;54.72;7.95;;;;;;;10.34;100.00;101786.81;8340727;28;20056;-57
2024/01/24 23:43:54;;;;;;;62.50;9.32;;;;;;;10.35;100.00;101797.50;8340604;28;20129;-57
2024/01/24 23:47:54;;;;;;;55.88;8.02;;;;;;;10.37;100.00;101800.94;8340557;28;20546;-58
2024/01/24 23:51:55;;;;;;;71.15;8.40;;;;;;;10.38;100.00;101797.28;8342244;28;20132;-56
2024/01/24 23:55:55;;;;;;;51.45;7.90;;;;;;;10.32;100.00;101791.44;8341495;28;20099;-56
2024/01/24 23:59:56;;;;;;;53.45;8.80;;;;;;;10.33;100.00;101788.63;8343407;28;20032;-56
